sensor_id;sensor_type;location;lat;lon;timestamp;P1;durP1;ratioP1;P2;durP2;ratioP2
83807;SDS011;73824;40.292;17.998;2024-01-06T00:01:28;17.53;;;4.00;;
83807;SDS011;73824;40.292;17.998;2024-01-06T00:03:54;19.90;;;3.80;;
83807;SDS011;73824;40.292;17.998;2024-01-06T00:06:20;16.13;;;3.37;;
83807;SDS011;73824;40.292;17.998;2024-01-06T00:08:45;13.32;;;4.38;;
83807;SDS011;73824;40.292;17.998;2024-01-06T00:11:11;17.03;;;3.87;;
83807;SDS011;73824;40.292;17.998;2024-01-06T00:13:37;13.35;;;3.17;;
83807;SDS011;73824;40.292;17.998;2024-01-06T00:16:02;15.07;;;4.33;;
83807;SDS011;73824;40.292;17.998;2024-01-06T00:18:28;14.00;;;3.77;;
83807;SDS011;73824;40.292;17.998;2024-01-06T00:20:53;16.60;;;3.28;;
83807;SDS011;73824;40.292;17.998;2024-01-06T00:23:19;14.60;;;3.03;;
83807;SDS011;73824;40.292;17.998;2024-01-06T00:25:44;18.03;;;3.57;;
83807;SDS011;73824;40.292;17.998;2024-01-06T00:28:10;11.20;;;2.92;;
83807;SDS011;73824;40.292;17.998;2024-01-06T00:30:36;10.47;;;2.70;;
83807;SDS011;73824;40.292;17.998;2024-01-06T00:33:01;14.18;;;3.40;;
83807;SDS011;73824;40.292;17.998;2024-01-06T00:35:27;15.50;;;3.23;;
83807;SDS011;73824;40.292;17.998;2024-01-06T00:37:52;12.07;;;2.67;;
83807;SDS011;73824;40.292;17.998;2024-01-06T00:40:18;12.20;;;3.58;;
83807;SDS011;73824;40.292;17.998;2024-01-06T00:42:44;14.52;;;3.25;;
83807;SDS011;73824;40.292;17.998;2024-01-06T00:45:10;13.00;;;2.85;;
83807;SDS011;73824;40.292;17.998;2024-01-06T00:47:35;12.57;;;2.90;;
83807;SDS011;73824;40.292;17.998;2024-01-06T00:50:01;23.77;;;3.67;;
83807;SDS011;73824;40.292;17.998;2024-01-06T00:52:26;13.30;;;2.83;;
83807;SDS011;73824;40.292;17.998;2024-01-06T00:54:52;12.17;;;2.93;;
83807;SDS011;73824;40.292;17.998;2024-01-06T00:57:18;14.45;;;3.08;;
83807;SDS011;73824;40.292;17.998;2024-01-06T00:59:49;13.40;;;2.93;;
83807;SDS011;73824;40.292;17.998;2024-01-06T01:02:14;15.23;;;2.85;;
83807;SDS011;73824;40.292;17.998;2024-01-06T01:04:40;13.63;;;2.67;;
83807;SDS011;73824;40.292;17.998;2024-01-06T01:07:05;12.70;;;3.03;;
83807;SDS011;73824;40.292;17.998;2024-01-06T01:09:31;16.83;;;3.00;;
83807;SDS011;73824;40.292;17.998;2024-01-06T01:11:56;16.63;;;3.53;;
83807;SDS011;73824;40.292;17.998;2024-01-06T01:14:22;13.33;;;2.77;;
83807;SDS011;73824;40.292;17.998;2024-01-06T01:16:47;13.05;;;2.97;;
83807;SDS011;73824;40.292;17.998;2024-01-06T01:19:13;14.23;;;3.03;;
83807;SDS011;73824;40.292;17.998;2024-01-06T01:21:39;11.40;;;2.90;;
83807;SDS011;73824;40.292;17.998;2024-01-06T01:24:05;14.47;;;3.07;;
83807;SDS011;73824;40.292;17.998;2024-01-06T01:26:30;9.80;;;2.60;;
83807;SDS011;73824;40.292;17.998;2024-01-06T01:28:56;16.23;;;3.08;;
83807;SDS011;73824;40.292;17.998;2024-01-06T01:31:21;14.60;;;3.20;;
83807;SDS011;73824;40.292;17.998;2024-01-06T01:33:47;15.80;;;2.63;;
83807;SDS011;73824;40.292;17.998;2024-01-06T01:36:12;12.82;;;2.95;;
83807;SDS011;73824;40.292;17.998;2024-01-06T01:38:38;16.13;;;2.90;;
83807;SDS011;73824;40.292;17.998;2024-01-06T01:41:03;12.47;;;2.47;;
83807;SDS011;73824;40.292;17.998;2024-01-06T01:43:29;12.75;;;2.60;;
83807;SDS011;73824;40.292;17.998;2024-01-06T01:45:55;11.65;;;2.50;;
83807;SDS011;73824;40.292;17.998;2024-01-06T01:48:21;15.10;;;3.08;;
83807;SDS011;73824;40.292;17.998;2024-01-06T01:50:47;18.30;;;3.00;;
83807;SDS011;73824;40.292;17.998;2024-01-06T01:53:13;16.80;;;3.03;;
83807;SDS011;73824;40.292;17.998;2024-01-06T01:55:39;14.77;;;3.03;;
83807;SDS011;73824;40.292;17.998;2024-01-06T01:58:09;18.42;;;2.72;;
83807;SDS011;73824;40.292;17.998;2024-01-06T02:05:47;15.43;;;2.88;;
83807;SDS011;73824;40.292;17.998;2024-01-06T02:08:12;16.48;;;3.10;;
83807;SDS011;73824;40.292;17.998;2024-01-06T02:10:38;15.13;;;3.33;;
83807;SDS011;73824;40.292;17.998;2024-01-06T02:13:07;19.13;;;2.60;;
83807;SDS011;73824;40.292;17.998;2024-01-06T02:15:36;18.60;;;3.38;;
83807;SDS011;73824;40.292;17.998;2024-01-06T02:18:02;15.45;;;2.60;;
83807;SDS011;73824;40.292;17.998;2024-01-06T02:20:29;19.08;;;2.78;;
83807;SDS011;73824;40.292;17.998;2024-01-06T02:22:56;20.50;;;3.53;;
83807;SDS011;73824;40.292;17.998;2024-01-06T02:25:23;15.98;;;3.08;;
83807;SDS011;73824;40.292;17.998;2024-01-06T02:27:49;25.50;;;3.38;;
83807;SDS011;73824;40.292;17.998;2024-01-06T02:30:15;12.30;;;2.63;;
83807;SDS011;73824;40.292;17.998;2024-01-06T02:32:40;18.52;;;2.88;;
83807;SDS011;73824;40.292;17.998;2024-01-06T02:35:06;17.65;;;2.80;;
83807;SDS011;73824;40.292;17.998;2024-01-06T02:37:32;16.30;;;3.08;;
83807;SDS011;73824;40.292;17.998;2024-01-06T02:39:57;19.13;;;3.33;;
83807;SDS011;73824;40.292;17.998;2024-01-06T02:42:23;16.80;;;3.20;;
83807;SDS011;73824;40.292;17.998;2024-01-06T02:44:50;14.95;;;3.55;;
83807;SDS011;73824;40.292;17.998;2024-01-06T02:47:15;16.87;;;2.93;;
83807;SDS011;73824;40.292;17.998;2024-01-06T02:49:41;17.70;;;2.67;;
83807;SDS011;73824;40.292;17.998;2024-01-06T02:52:07;24.40;;;2.87;;
83807;SDS011;73824;40.292;17.998;2024-01-06T02:54:32;13.50;;;2.90;;
83807;SDS011;73824;40.292;17.998;2024-01-06T02:56:58;21.50;;;2.97;;
83807;SDS011;73824;40.292;17.998;2024-01-06T02:59:25;13.10;;;2.40;;
83807;SDS011;73824;40.292;17.998;2024-01-06T03:01:51;17.10;;;3.33;;
83807;SDS011;73824;40.292;17.998;2024-01-06T03:04:16;15.17;;;2.80;;
83807;SDS011;73824;40.292;17.998;2024-01-06T03:06:42;15.60;;;2.87;;
83807;SDS011;73824;40.292;17.998;2024-01-06T03:09:08;13.77;;;2.35;;
83807;SDS011;73824;40.292;17.998;2024-01-06T03:11:33;17.47;;;2.60;;
83807;SDS011;73824;40.292;17.998;2024-01-06T03:13:59;12.97;;;2.57;;
83807;SDS011;73824;40.292;17.998;2024-01-06T03:16:24;16.42;;;2.22;;
83807;SDS011;73824;40.292;17.998;2024-01-06T03:18:50;15.47;;;2.50;;
83807;SDS011;73824;40.292;17.998;2024-01-06T03:21:18;15.17;;;2.80;;
83807;SDS011;73824;40.292;17.998;2024-01-06T03:23:45;15.63;;;2.20;;
83807;SDS011;73824;40.292;17.998;2024-01-06T03:26:11;16.98;;;2.92;;
83807;SDS011;73824;40.292;17.998;2024-01-06T03:28:37;16.23;;;2.20;;
83807;SDS011;73824;40.292;17.998;2024-01-06T03:31:02;12.87;;;2.47;;
83807;SDS011;73824;40.292;17.998;2024-01-06T03:33:28;14.70;;;2.65;;
83807;SDS011;73824;40.292;17.998;2024-01-06T03:35:54;13.20;;;2.07;;
83807;SDS011;73824;40.292;17.998;2024-01-06T03:38:19;14.70;;;2.80;;
83807;SDS011;73824;40.292;17.998;2024-01-06T03:40:44;15.30;;;2.60;;
83807;SDS011;73824;40.292;17.998;2024-01-06T03:43:10;13.70;;;2.27;;
83807;SDS011;73824;40.292;17.998;2024-01-06T03:45:35;14.27;;;2.43;;
83807;SDS011;73824;40.292;17.998;2024-01-06T03:48:01;12.30;;;2.42;;
83807;SDS011;73824;40.292;17.998;2024-01-06T03:50:26;13.80;;;3.00;;
83807;SDS011;73824;40.292;17.998;2024-01-06T03:52:52;14.57;;;2.37;;
83807;SDS011;73824;40.292;17.998;2024-01-06T03:55:18;18.50;;;2.53;;
83807;SDS011;73824;40.292;17.998;2024-01-06T03:57:43;16.17;;;2.10;;
83807;SDS011;73824;40.292;17.998;2024-01-06T04:00:09;12.07;;;1.83;;
83807;SDS011;73824;40.292;17.998;2024-01-06T04:02:35;13.68;;;2.78;;
83807;SDS011;73824;40.292;17.998;2024-01-06T04:05:00;14.23;;;2.27;;
83807;SDS011;73824;40.292;17.998;2024-01-06T04:07:26;11.93;;;2.17;;
83807;SDS011;73824;40.292;17.998;2024-01-06T04:09:51;16.77;;;2.13;;
83807;SDS011;73824;40.292;17.998;2024-01-06T04:12:17;13.48;;;1.92;;
83807;SDS011;73824;40.292;17.998;2024-01-06T04:14:43;15.77;;;2.50;;
83807;SDS011;73824;40.292;17.998;2024-01-06T04:17:08;16.40;;;1.97;;
83807;SDS011;73824;40.292;17.998;2024-01-06T04:19:33;13.43;;;2.13;;
83807;SDS011;73824;40.292;17.998;2024-01-06T04:21:59;15.68;;;1.90;;
83807;SDS011;73824;40.292;17.998;2024-01-06T04:24:25;15.67;;;2.57;;
83807;SDS011;73824;40.292;17.998;2024-01-06T04:26:50;13.48;;;2.22;;
83807;SDS011;73824;40.292;17.998;2024-01-06T04:29:16;10.85;;;2.10;;
83807;SDS011;73824;40.292;17.998;2024-01-06T04:31:41;21.70;;;3.33;;
83807;SDS011;73824;40.292;17.998;2024-01-06T04:34:07;17.37;;;2.67;;
83807;SDS011;73824;40.292;17.998;2024-01-06T04:36:32;14.43;;;2.90;;
83807;SDS011;73824;40.292;17.998;2024-01-06T04:38:58;20.43;;;2.47;;
83807;SDS011;73824;40.292;17.998;2024-01-06T04:41:23;18.23;;;3.20;;
83807;SDS011;73824;40.292;17.998;2024-01-06T04:43:49;18.20;;;2.95;;
83807;SDS011;73824;40.292;17.998;2024-01-06T04:46:14;17.55;;;2.53;;
83807;SDS011;73824;40.292;17.998;2024-01-06T04:48:43;18.50;;;2.70;;
83807;SDS011;73824;40.292;17.998;2024-01-06T04:51:09;13.73;;;2.40;;
83807;SDS011;73824;40.292;17.998;2024-01-06T04:53:38;15.75;;;1.95;;
83807;SDS011;73824;40.292;17.998;2024-01-06T04:56:03;16.13;;;2.17;;
83807;SDS011;73824;40.292;17.998;2024-01-06T04:58:29;14.95;;;2.00;;
83807;SDS011;73824;40.292;17.998;2024-01-06T05:00:54;16.23;;;2.37;;
83807;SDS011;73824;40.292;17.998;2024-01-06T05:03:20;20.20;;;3.17;;
83807;SDS011;73824;40.292;17.998;2024-01-06T05:05:45;18.77;;;2.38;;
83807;SDS011;73824;40.292;17.998;2024-01-06T05:08:11;17.85;;;2.15;;
83807;SDS011;73824;40.292;17.998;2024-01-06T05:10:36;14.10;;;2.83;;
83807;SDS011;73824;40.292;17.998;2024-01-06T05:13:02;14.75;;;2.15;;
83807;SDS011;73824;40.292;17.998;2024-01-06T05:15:28;17.05;;;2.47;;
83807;SDS011;73824;40.292;17.998;2024-01-06T05:17:56;15.02;;;2.40;;
83807;SDS011;73824;40.292;17.998;2024-01-06T05:20:21;17.17;;;2.13;;
83807;SDS011;73824;40.292;17.998;2024-01-06T05:22:47;12.67;;;2.33;;
83807;SDS011;73824;40.292;17.998;2024-01-06T05:25:12;13.45;;;2.42;;
83807;SDS011;73824;40.292;17.998;2024-01-06T05:27:38;14.47;;;2.00;;
83807;SDS011;73824;40.292;17.998;2024-01-06T05:30:04;18.70;;;2.42;;
83807;SDS011;73824;40.292;17.998;2024-01-06T05:32:31;22.15;;;2.58;;
83807;SDS011;73824;40.292;17.998;2024-01-06T05:34:56;16.10;;;2.22;;
83807;SDS011;73824;40.292;17.998;2024-01-06T05:37:22;19.73;;;2.33;;
83807;SDS011;73824;40.292;17.998;2024-01-06T05:39:47;15.03;;;2.23;;
83807;SDS011;73824;40.292;17.998;2024-01-06T05:42:13;10.93;;;2.10;;
83807;SDS011;73824;40.292;17.998;2024-01-06T05:44:40;14.70;;;2.60;;
83807;SDS011;73824;40.292;17.998;2024-01-06T05:47:06;16.33;;;2.75;;
83807;SDS011;73824;40.292;17.998;2024-01-06T05:49:33;25.58;;;2.45;;
83807;SDS011;73824;40.292;17.998;2024-01-06T05:51:58;16.27;;;2.67;;
83807;SDS011;73824;40.292;17.998;2024-01-06T05:54:24;20.00;;;3.53;;
83807;SDS011;73824;40.292;17.998;2024-01-06T05:56:50;15.47;;;2.30;;
83807;SDS011;73824;40.292;17.998;2024-01-06T05:59:15;17.20;;;2.90;;
83807;SDS011;73824;40.292;17.998;2024-01-06T06:01:41;16.50;;;2.20;;
83807;SDS011;73824;40.292;17.998;2024-01-06T06:04:06;21.52;;;2.72;;
83807;SDS011;73824;40.292;17.998;2024-01-06T06:06:32;17.70;;;2.80;;
83807;SDS011;73824;40.292;17.998;2024-01-06T06:08:58;22.60;;;3.42;;
83807;SDS011;73824;40.292;17.998;2024-01-06T06:11:23;19.13;;;2.80;;
83807;SDS011;73824;40.292;17.998;2024-01-06T06:13:49;19.67;;;3.17;;
83807;SDS011;73824;40.292;17.998;2024-01-06T06:16:14;14.25;;;2.13;;
83807;SDS011;73824;40.292;17.998;2024-01-06T06:18:40;17.13;;;3.70;;
83807;SDS011;73824;40.292;17.998;2024-01-06T06:21:06;13.40;;;2.42;;
83807;SDS011;73824;40.292;17.998;2024-01-06T06:23:33;14.30;;;2.97;;
83807;SDS011;73824;40.292;17.998;2024-01-06T06:25:58;13.77;;;2.72;;
83807;SDS011;73824;40.292;17.998;2024-01-06T06:28:27;24.67;;;3.10;;
83807;SDS011;73824;40.292;17.998;2024-01-06T06:30:53;13.40;;;2.07;;
83807;SDS011;73824;40.292;17.998;2024-01-06T06:33:18;19.47;;;3.37;;
83807;SDS011;73824;40.292;17.998;2024-01-06T06:35:44;17.20;;;2.50;;
83807;SDS011;73824;40.292;17.998;2024-01-06T06:38:09;19.63;;;2.33;;
83807;SDS011;73824;40.292;17.998;2024-01-06T06:40:34;15.07;;;2.17;;
83807;SDS011;73824;40.292;17.998;2024-01-06T06:43:00;24.90;;;4.40;;
83807;SDS011;73824;40.292;17.998;2024-01-06T06:45:25;17.80;;;3.33;;
83807;SDS011;73824;40.292;17.998;2024-01-06T06:47:51;16.47;;;2.83;;
83807;SDS011;73824;40.292;17.998;2024-01-06T06:50:17;19.17;;;2.57;;
83807;SDS011;73824;40.292;17.998;2024-01-06T06:52:44;15.30;;;2.92;;
83807;SDS011;73824;40.292;17.998;2024-01-06T06:55:09;16.13;;;2.20;;
83807;SDS011;73824;40.292;17.998;2024-01-06T06:57:35;22.10;;;3.37;;
83807;SDS011;73824;40.292;17.998;2024-01-06T07:00:01;19.05;;;2.90;;
83807;SDS011;73824;40.292;17.998;2024-01-06T07:02:27;15.20;;;2.55;;
83807;SDS011;73824;40.292;17.998;2024-01-06T07:04:52;12.80;;;2.70;;
83807;SDS011;73824;40.292;17.998;2024-01-06T07:07:18;17.02;;;3.25;;
83807;SDS011;73824;40.292;17.998;2024-01-06T07:09:44;18.33;;;3.90;;
83807;SDS011;73824;40.292;17.998;2024-01-06T07:12:09;19.13;;;3.33;;
83807;SDS011;73824;40.292;17.998;2024-01-06T07:14:35;15.85;;;3.28;;
83807;SDS011;73824;40.292;17.998;2024-01-06T07:17:02;16.97;;;2.83;;
83807;SDS011;73824;40.292;17.998;2024-01-06T07:19:29;23.20;;;3.05;;
83807;SDS011;73824;40.292;17.998;2024-01-06T07:21:59;23.45;;;2.75;;
83807;SDS011;73824;40.292;17.998;2024-01-06T07:24:24;15.90;;;2.38;;
83807;SDS011;73824;40.292;17.998;2024-01-06T07:26:51;22.33;;;3.63;;
83807;SDS011;73824;40.292;17.998;2024-01-06T07:29:16;22.23;;;3.07;;
83807;SDS011;73824;40.292;17.998;2024-01-06T07:31:42;22.90;;;3.57;;
83807;SDS011;73824;40.292;17.998;2024-01-06T07:34:07;16.47;;;3.10;;
83807;SDS011;73824;40.292;17.998;2024-01-06T07:36:33;20.93;;;3.73;;
83807;SDS011;73824;40.292;17.998;2024-01-06T07:38:58;15.65;;;2.13;;
83807;SDS011;73824;40.292;17.998;2024-01-06T07:41:24;18.47;;;3.70;;
83807;SDS011;73824;40.292;17.998;2024-01-06T07:43:49;23.53;;;3.53;;
83807;SDS011;73824;40.292;17.998;2024-01-06T07:46:15;17.80;;;3.08;;
83807;SDS011;73824;40.292;17.998;2024-01-06T07:48:40;20.58;;;2.92;;
83807;SDS011;73824;40.292;17.998;2024-01-06T07:51:06;19.87;;;3.10;;
83807;SDS011;73824;40.292;17.998;2024-01-06T07:53:31;19.00;;;3.23;;
83807;SDS011;73824;40.292;17.998;2024-01-06T07:55:57;13.43;;;2.58;;
83807;SDS011;73824;40.292;17.998;2024-01-06T07:58:22;23.97;;;2.93;;
83807;SDS011;73824;40.292;17.998;2024-01-06T08:00:48;15.97;;;2.80;;
83807;SDS011;73824;40.292;17.998;2024-01-06T08:03:13;17.02;;;2.83;;
83807;SDS011;73824;40.292;17.998;2024-01-06T08:05:39;24.30;;;3.13;;
83807;SDS011;73824;40.292;17.998;2024-01-06T08:08:07;15.63;;;2.87;;
83807;SDS011;73824;40.292;17.998;2024-01-06T08:10:33;18.17;;;3.53;;
83807;SDS011;73824;40.292;17.998;2024-01-06T08:12:58;15.50;;;2.70;;
83807;SDS011;73824;40.292;17.998;2024-01-06T08:15:24;15.50;;;3.30;;
83807;SDS011;73824;40.292;17.998;2024-01-06T08:17:49;17.43;;;3.13;;
83807;SDS011;73824;40.292;17.998;2024-01-06T08:20:15;17.83;;;3.65;;
83807;SDS011;73824;40.292;17.998;2024-01-06T08:22:40;23.60;;;4.95;;
83807;SDS011;73824;40.292;17.998;2024-01-06T08:25:06;17.03;;;3.07;;
83807;SDS011;73824;40.292;17.998;2024-01-06T08:27:33;18.63;;;3.60;;
83807;SDS011;73824;40.292;17.998;2024-01-06T08:29:59;18.55;;;3.35;;
83807;SDS011;73824;40.292;17.998;2024-01-06T08:32:24;17.20;;;2.73;;
83807;SDS011;73824;40.292;17.998;2024-01-06T08:34:50;20.10;;;4.20;;
83807;SDS011;73824;40.292;17.998;2024-01-06T08:37:15;21.23;;;3.55;;
83807;SDS011;73824;40.292;17.998;2024-01-06T08:39:41;19.77;;;3.93;;
83807;SDS011;73824;40.292;17.998;2024-01-06T08:42:06;16.97;;;3.33;;
83807;SDS011;73824;40.292;17.998;2024-01-06T08:44:32;20.65;;;3.70;;
83807;SDS011;73824;40.292;17.998;2024-01-06T08:46:57;16.10;;;3.80;;
83807;SDS011;73824;40.292;17.998;2024-01-06T08:49:23;17.57;;;2.97;;
83807;SDS011;73824;40.292;17.998;2024-01-06T08:51:49;15.90;;;2.90;;
83807;SDS011;73824;40.292;17.998;2024-01-06T08:54:15;24.15;;;3.50;;
83807;SDS011;73824;40.292;17.998;2024-01-06T08:56:41;22.13;;;3.60;;
83807;SDS011;73824;40.292;17.998;2024-01-06T08:59:06;18.42;;;3.65;;
83807;SDS011;73824;40.292;17.998;2024-01-06T09:01:32;23.38;;;3.75;;
83807;SDS011;73824;40.292;17.998;2024-01-06T09:03:59;13.63;;;3.30;;
83807;SDS011;73824;40.292;17.998;2024-01-06T09:06:24;19.83;;;3.80;;
83807;SDS011;73824;40.292;17.998;2024-01-06T09:08:50;17.23;;;3.57;;
83807;SDS011;73824;40.292;17.998;2024-01-06T09:11:15;17.38;;;4.28;;
83807;SDS011;73824;40.292;17.998;2024-01-06T09:13:41;15.40;;;2.70;;
83807;SDS011;73824;40.292;17.998;2024-01-06T09:16:06;15.77;;;2.80;;
83807;SDS011;73824;40.292;17.998;2024-01-06T09:18:32;15.95;;;3.47;;
83807;SDS011;73824;40.292;17.998;2024-01-06T09:20:57;15.88;;;2.67;;
83807;SDS011;73824;40.292;17.998;2024-01-06T09:23:23;16.60;;;3.40;;
83807;SDS011;73824;40.292;17.998;2024-01-06T09:25:48;14.17;;;3.60;;
83807;SDS011;73824;40.292;17.998;2024-01-06T09:28:16;16.98;;;3.67;;
83807;SDS011;73824;40.292;17.998;2024-01-06T09:30:41;20.15;;;4.05;;
83807;SDS011;73824;40.292;17.998;2024-01-06T09:33:07;15.88;;;3.28;;
83807;SDS011;73824;40.292;17.998;2024-01-06T09:35:35;15.55;;;3.13;;
83807;SDS011;73824;40.292;17.998;2024-01-06T09:38:01;17.33;;;2.50;;
83807;SDS011;73824;40.292;17.998;2024-01-06T09:40:26;11.93;;;2.47;;
83807;SDS011;73824;40.292;17.998;2024-01-06T09:42:55;19.65;;;3.10;;
83807;SDS011;73824;40.292;17.998;2024-01-06T09:45:20;18.97;;;2.70;;
83807;SDS011;73824;40.292;17.998;2024-01-06T09:47:50;13.50;;;2.78;;
83807;SDS011;73824;40.292;17.998;2024-01-06T09:50:20;18.98;;;3.50;;
83807;SDS011;73824;40.292;17.998;2024-01-06T09:52:46;24.00;;;4.63;;
83807;SDS011;73824;40.292;17.998;2024-01-06T09:55:24;20.08;;;4.25;;
83807;SDS011;73824;40.292;17.998;2024-01-06T09:57:54;16.58;;;3.75;;
83807;SDS011;73824;40.292;17.998;2024-01-06T10:00:20;20.35;;;4.45;;
83807;SDS011;73824;40.292;17.998;2024-01-06T10:02:49;18.60;;;4.20;;
83807;SDS011;73824;40.292;17.998;2024-01-06T10:05:16;16.90;;;3.00;;
83807;SDS011;73824;40.292;17.998;2024-01-06T10:07:43;16.42;;;2.92;;
83807;SDS011;73824;40.292;17.998;2024-01-06T10:10:12;18.58;;;3.58;;
83807;SDS011;73824;40.292;17.998;2024-01-06T10:12:38;22.27;;;3.50;;
83807;SDS011;73824;40.292;17.998;2024-01-06T10:15:05;17.35;;;3.20;;
83807;SDS011;73824;40.292;17.998;2024-01-06T10:17:37;19.23;;;2.90;;
83807;SDS011;73824;40.292;17.998;2024-01-06T10:20:12;21.75;;;3.60;;
83807;SDS011;73824;40.292;17.998;2024-01-06T10:22:40;16.42;;;3.60;;
83807;SDS011;73824;40.292;17.998;2024-01-06T10:25:10;18.00;;;3.72;;
83807;SDS011;73824;40.292;17.998;2024-01-06T10:27:40;16.70;;;3.53;;
83807;SDS011;73824;40.292;17.998;2024-01-06T10:30:07;23.40;;;4.07;;
83807;SDS011;73824;40.292;17.998;2024-01-06T10:32:35;34.08;;;9.02;;
83807;SDS011;73824;40.292;17.998;2024-01-06T10:35:01;21.55;;;6.45;;
83807;SDS011;73824;40.292;17.998;2024-01-06T10:37:28;17.08;;;5.43;;
83807;SDS011;73824;40.292;17.998;2024-01-06T10:42:36;20.40;;;3.80;;
83807;SDS011;73824;40.292;17.998;2024-01-06T10:45:06;21.02;;;3.85;;
83807;SDS011;73824;40.292;17.998;2024-01-06T10:47:35;20.17;;;3.63;;
83807;SDS011;73824;40.292;17.998;2024-01-06T10:50:02;21.88;;;5.20;;
83807;SDS011;73824;40.292;17.998;2024-01-06T10:52:28;17.30;;;3.55;;
83807;SDS011;73824;40.292;17.998;2024-01-06T10:54:54;17.50;;;4.03;;
83807;SDS011;73824;40.292;17.998;2024-01-06T10:57:21;18.63;;;3.13;;
83807;SDS011;73824;40.292;17.998;2024-01-06T10:59:48;15.30;;;3.50;;
83807;SDS011;73824;40.292;17.998;2024-01-06T11:02:15;17.50;;;3.90;;
83807;SDS011;73824;40.292;17.998;2024-01-06T11:04:45;18.92;;;4.18;;
83807;SDS011;73824;40.292;17.998;2024-01-06T11:07:11;15.90;;;3.50;;
83807;SDS011;73824;40.292;17.998;2024-01-06T11:09:39;22.35;;;3.67;;
83807;SDS011;73824;40.292;17.998;2024-01-06T11:12:11;25.80;;;4.43;;
83807;SDS011;73824;40.292;17.998;2024-01-06T11:14:37;18.57;;;4.70;;
83807;SDS011;73824;40.292;17.998;2024-01-06T11:17:03;21.95;;;4.82;;
83807;SDS011;73824;40.292;17.998;2024-01-06T11:22:20;21.15;;;4.07;;
83807;SDS011;73824;40.292;17.998;2024-01-06T11:24:52;22.23;;;4.55;;
83807;SDS011;73824;40.292;17.998;2024-01-06T11:27:22;25.17;;;5.70;;
83807;SDS011;73824;40.292;17.998;2024-01-06T11:29:51;16.50;;;4.35;;
83807;SDS011;73824;40.292;17.998;2024-01-06T11:32:40;24.00;;;5.00;;
83807;SDS011;73824;40.292;17.998;2024-01-06T11:37:37;23.42;;;4.88;;
83807;SDS011;73824;40.292;17.998;2024-01-06T11:43:01;21.90;;;4.75;;
83807;SDS011;73824;40.292;17.998;2024-01-06T11:45:36;27.97;;;5.03;;
83807;SDS011;73824;40.292;17.998;2024-01-06T11:48:06;23.42;;;5.75;;
83807;SDS011;73824;40.292;17.998;2024-01-06T11:50:34;19.30;;;5.82;;
83807;SDS011;73824;40.292;17.998;2024-01-06T11:53:01;21.38;;;5.70;;
83807;SDS011;73824;40.292;17.998;2024-01-06T11:55:28;21.35;;;4.78;;
83807;SDS011;73824;40.292;17.998;2024-01-06T11:57:56;23.27;;;6.67;;
83807;SDS011;73824;40.292;17.998;2024-01-06T12:00:26;24.80;;;6.28;;
83807;SDS011;73824;40.292;17.998;2024-01-06T12:02:59;19.75;;;4.30;;
83807;SDS011;73824;40.292;17.998;2024-01-06T12:05:26;20.63;;;4.88;;
83807;SDS011;73824;40.292;17.998;2024-01-06T12:08:02;28.15;;;5.57;;
83807;SDS011;73824;40.292;17.998;2024-01-06T12:10:32;20.37;;;4.97;;
83807;SDS011;73824;40.292;17.998;2024-01-06T12:12:59;26.65;;;5.68;;
83807;SDS011;73824;40.292;17.998;2024-01-06T12:15:26;20.17;;;5.43;;
83807;SDS011;73824;40.292;17.998;2024-01-06T12:17:52;23.25;;;4.97;;
83807;SDS011;73824;40.292;17.998;2024-01-06T12:20:17;19.60;;;4.60;;
83807;SDS011;73824;40.292;17.998;2024-01-06T12:22:43;22.23;;;4.70;;
83807;SDS011;73824;40.292;17.998;2024-01-06T12:25:09;19.85;;;4.32;;
83807;SDS011;73824;40.292;17.998;2024-01-06T12:27:35;22.15;;;5.55;;
83807;SDS011;73824;40.292;17.998;2024-01-06T12:30:00;16.50;;;4.67;;
83807;SDS011;73824;40.292;17.998;2024-01-06T12:32:26;18.65;;;4.18;;
83807;SDS011;73824;40.292;17.998;2024-01-06T12:34:52;26.30;;;6.10;;
83807;SDS011;73824;40.292;17.998;2024-01-06T12:37:17;28.07;;;5.27;;
83807;SDS011;73824;40.292;17.998;2024-01-06T12:39:43;23.33;;;5.80;;
83807;SDS011;73824;40.292;17.998;2024-01-06T12:42:10;31.15;;;5.78;;
83807;SDS011;73824;40.292;17.998;2024-01-06T12:44:36;22.33;;;4.78;;
83807;SDS011;73824;40.292;17.998;2024-01-06T12:47:04;20.88;;;4.53;;
83807;SDS011;73824;40.292;17.998;2024-01-06T12:49:29;26.08;;;5.20;;
83807;SDS011;73824;40.292;17.998;2024-01-06T12:51:55;24.13;;;5.10;;
83807;SDS011;73824;40.292;17.998;2024-01-06T12:54:21;32.45;;;4.45;;
83807;SDS011;73824;40.292;17.998;2024-01-06T12:56:46;18.97;;;5.27;;
83807;SDS011;73824;40.292;17.998;2024-01-06T12:59:12;17.58;;;4.32;;
83807;SDS011;73824;40.292;17.998;2024-01-06T13:01:37;22.27;;;5.85;;
83807;SDS011;73824;40.292;17.998;2024-01-06T13:04:04;26.98;;;6.22;;
83807;SDS011;73824;40.292;17.998;2024-01-06T13:06:29;27.93;;;5.37;;
83807;SDS011;73824;40.292;17.998;2024-01-06T13:08:55;22.95;;;5.53;;
83807;SDS011;73824;40.292;17.998;2024-01-06T13:11:21;20.97;;;5.67;;
83807;SDS011;73824;40.292;17.998;2024-01-06T13:13:47;21.58;;;6.95;;
83807;SDS011;73824;40.292;17.998;2024-01-06T13:16:13;28.83;;;6.17;;
83807;SDS011;73824;40.292;17.998;2024-01-06T13:18:38;26.92;;;5.55;;
83807;SDS011;73824;40.292;17.998;2024-01-06T13:21:04;20.13;;;5.80;;
83807;SDS011;73824;40.292;17.998;2024-01-06T13:23:29;27.60;;;5.77;;
83807;SDS011;73824;40.292;17.998;2024-01-06T13:25:55;22.23;;;5.00;;
83807;SDS011;73824;40.292;17.998;2024-01-06T13:28:22;27.63;;;6.33;;
83807;SDS011;73824;40.292;17.998;2024-01-06T13:30:49;21.48;;;5.13;;
83807;SDS011;73824;40.292;17.998;2024-01-06T13:33:15;18.98;;;4.68;;
83807;SDS011;73824;40.292;17.998;2024-01-06T13:35:40;22.27;;;6.10;;
83807;SDS011;73824;40.292;17.998;2024-01-06T13:38:06;22.53;;;5.47;;
83807;SDS011;73824;40.292;17.998;2024-01-06T13:40:31;18.50;;;4.97;;
83807;SDS011;73824;40.292;17.998;2024-01-06T13:42:57;25.67;;;4.77;;
83807;SDS011;73824;40.292;17.998;2024-01-06T13:45:23;27.77;;;5.65;;
83807;SDS011;73824;40.292;17.998;2024-01-06T13:47:49;28.40;;;5.13;;
83807;SDS011;73824;40.292;17.998;2024-01-06T13:50:16;25.37;;;5.93;;
83807;SDS011;73824;40.292;17.998;2024-01-06T13:52:42;26.77;;;5.40;;
83807;SDS011;73824;40.292;17.998;2024-01-06T13:55:08;21.63;;;4.55;;
83807;SDS011;73824;40.292;17.998;2024-01-06T13:57:34;22.67;;;5.10;;
83807;SDS011;73824;40.292;17.998;2024-01-06T14:00:00;26.67;;;5.13;;
83807;SDS011;73824;40.292;17.998;2024-01-06T14:02:26;22.15;;;5.63;;
83807;SDS011;73824;40.292;17.998;2024-01-06T14:04:52;24.17;;;4.40;;
83807;SDS011;73824;40.292;17.998;2024-01-06T14:07:18;24.38;;;5.45;;
83807;SDS011;73824;40.292;17.998;2024-01-06T14:09:44;21.48;;;4.18;;
83807;SDS011;73824;40.292;17.998;2024-01-06T14:12:10;27.90;;;5.82;;
83807;SDS011;73824;40.292;17.998;2024-01-06T14:14:39;17.70;;;4.15;;
83807;SDS011;73824;40.292;17.998;2024-01-06T14:17:06;18.10;;;4.15;;
83807;SDS011;73824;40.292;17.998;2024-01-06T14:19:32;21.10;;;3.95;;
83807;SDS011;73824;40.292;17.998;2024-01-06T14:21:57;21.10;;;4.43;;
83807;SDS011;73824;40.292;17.998;2024-01-06T14:24:23;22.83;;;4.13;;
83807;SDS011;73824;40.292;17.998;2024-01-06T14:26:50;25.75;;;4.88;;
83807;SDS011;73824;40.292;17.998;2024-01-06T14:29:16;24.45;;;4.90;;
83807;SDS011;73824;40.292;17.998;2024-01-06T14:31:42;21.30;;;4.25;;